CST,Max TemperatureF,Mean TemperatureF,Min TemperatureF,Max Dew PointF,MeanDew PointF,Min DewpointF,Max Humidity, Mean Humidity, Min Humidity, Max Sea Level PressureIn, Mean Sea Level PressureIn, Min Sea Level PressureIn, Max VisibilityMiles, Mean VisibilityMiles, Min VisibilityMiles, Max Wind SpeedMPH, Mean Wind SpeedMPH, Max Gust SpeedMPH,PrecipitationIn, CloudCover, Events, WindDirDegrees
2012-11-1,59,49,38,43,39,36,92,72,51,30.08,30.00,29.96,10,9,4,20,9,22,0.00,1,,11
2012-11-2,54,45,35,37,36,33,100,77,54,30.15,30.00,29.92,10,8,3,18,9,23,0.00,0,,41
2012-11-3,57,42,27,37,33,26,100,74,47,30.26,30.21,30.15,10,9,6,15,7,18,0.00,2,,334
2012-11-4,57,48,39,40,37,35,85,68,51,30.18,30.10,30.02,10,10,10,14,8,17,T,5,Rain,271
2012-11-5,47,43,38,39,35,33,89,75,60,30.24,30.16,30.05,10,10,10,22,12,28,T,6,,2
2012-11-6,60,47,33,36,26,17,79,49,19,30.17,30.11,30.01,10,10,10,35,16,44,T,1,Rain,308
2012-11-7,60,44,27,29,26,20,78,53,27,30.22,30.10,29.95,10,10,10,18,10,24,0.00,0,,191
2012-11-8,64,51,37,31,30,28,76,53,30,29.94,29.89,29.84,10,10,10,17,8,21,0.00,0,,223
2012-11-9,51,43,34,41,36,30,100,83,66,29.89,29.79,29.62,10,6,2,16,9,20,0.00,4,,11
2012-11-10,79,54,29,59,38,23,100,69,37,29.78,29.58,29.39,10,8,2,36,14,45,0.49,4,Rain-Thunderstorm,290
2012-11-11,34,27,20,22,14,9,78,58,38,30.28,30.06,29.81,10,10,10,30,16,36,0.00,2,,317
2012-11-12,46,33,19,18,13,9,73,48,22,30.40,30.34,30.28,10,10,7,23,11,29,0.00,0,,272
2012-11-13,55,39,23,26,21,14,68,46,24,30.38,30.31,30.24,10,10,10,16,7,20,0.00,1,,196
2012-11-14,57,41,24,30,25,20,81,56,30,30.33,30.25,30.18,10,10,10,14,7,17,0.00,1,,217
2012-11-15,59,45,30,33,30,26,85,59,33,30.48,30.34,30.19,10,10,10,16,7,20,0.00,3,,11
2012-11-16,58,40,22,35,30,20,96,67,38,30.48,30.37,30.25,10,10,10,21,9,26,0.00,0,,163
2012-11-17,63,51,39,40,34,30,73,56,39,30.23,30.14,30.07,10,10,10,23,14,30,0.00,0,,179
2012-11-18,59,49,39,39,35,31,79,61,43,30.09,30.03,29.98,10,10,10,20,10,24,0.00,0,,170
2012-11-19,67,50,33,37,33,28,89,59,29,30.20,30.09,29.99,10,10,10,16,9,21,0.00,0,,287
2012-11-20,68,49,29,37,31,24,85,56,27,30.26,30.18,30.08,10,10,10,22,10,26,0.00,0,,222
2012-11-21,74,57,39,39,36,33,85,54,23,30.08,29.93,29.75,10,10,10,32,16,40,0.00,0,,195
2012-11-22,60,48,35,38,30,21,76,54,32,30.36,30.02,29.74,10,10,10,32,15,39,0.00,0,,301
2012-11-23,39,30,20,15,12,10,67,50,32,30.61,30.51,30.40,10,10,10,35,12,44,0.00,0,,316
2012-11-24,51,38,24,25,20,15,68,50,32,30.38,30.05,29.88,10,10,10,22,10,28,0.00,0,,193
2012-11-25,47,39,31,30,24,19,72,53,34,30.17,30.04,29.95,10,10,10,13,9,16,0.00,3,,7
2012-11-26,34,24,14,27,21,12,96,80,64,30.51,30.41,30.17,10,6,1,21,11,25,0.04,6,Snow,5
2012-11-27,47,31,15,30,23,14,92,71,49,30.49,30.32,30.14,10,10,8,24,10,31,0.00,0,,242
2012-11-28,51,33,15,29,24,13,92,67,41,30.40,30.26,30.07,10,10,9,16,8,20,0.00,0,,215
2012-11-29,62,42,22,30,27,20,92,60,27,30.06,30.00,29.90,10,10,10,14,6,18,0.00,0,,224
2012-11-30,53,39,24,31,28,21,92,67,41,30.14,30.05,29.91,10,10,10,16,7,22,0.00,0,,144